createdAt,value
2022-09-29T00:00:52.460Z,8.00
2022-09-29T00:03:21.290Z,8.00
2022-09-29T00:05:50.939Z,8.00
2022-09-29T00:08:21.848Z,7.90
2022-09-29T00:10:49.960Z,7.90
2022-09-29T00:13:18.661Z,7.90
2022-09-29T00:15:46.727Z,7.90
2022-09-29T00:18:14.902Z,7.90
2022-09-29T00:20:42.958Z,7.90
2022-09-29T00:23:10.711Z,7.90
2022-09-29T00:25:39.761Z,7.90
2022-09-29T00:28:07.434Z,7.80
2022-09-29T00:30:35.093Z,7.80
2022-09-29T00:33:02.776Z,7.80
2022-09-29T00:35:30.523Z,7.80
2022-09-29T00:37:58.706Z,7.80
2022-09-29T00:40:26.456Z,7.80
2022-09-29T00:42:55.479Z,7.70
2022-09-29T00:45:24.314Z,7.70
2022-09-29T00:47:59.882Z,7.70
2022-09-29T00:50:38.178Z,7.70
2022-09-29T00:53:11.962Z,7.70
2022-09-29T00:55:43.925Z,7.60
2022-09-29T00:58:19.830Z,7.60
2022-09-29T01:00:47.595Z,7.60
2022-09-29T01:03:20.068Z,7.60
2022-09-29T01:05:52.024Z,7.60
2022-09-29T01:08:25.646Z,7.60
2022-09-29T01:10:54.517Z,7.50
2022-09-29T01:13:24.543Z,7.50
2022-09-29T01:15:52.413Z,7.50
2022-09-29T01:18:20.368Z,7.40
2022-09-29T01:20:57.804Z,7.40
2022-09-29T01:23:58.269Z,7.40
2022-09-29T01:26:59.551Z,7.30
2022-09-29T01:30:00.751Z,7.30
2022-09-29T01:32:41.358Z,7.20
2022-09-29T01:35:15.784Z,7.20
2022-09-29T01:37:59.381Z,7.20
2022-09-29T01:40:35.428Z,7.10
2022-09-29T01:43:09.016Z,7.10
2022-09-29T01:45:40.056Z,7.00
2022-09-29T01:48:11.911Z,7.00
2022-09-29T01:50:43.488Z,7.00
2022-09-29T01:53:17.568Z,7.00
2022-09-29T01:55:50.842Z,6.90
2022-09-29T01:58:21.984Z,6.90
2022-09-29T02:00:54.074Z,6.90
2022-09-29T02:03:30.176Z,6.80
2022-09-29T02:06:01.134Z,6.80
2022-09-29T02:08:33.096Z,6.80
2022-09-29T02:11:03.712Z,6.70
2022-09-29T02:13:36.350Z,6.80
2022-09-29T02:19:08.535Z,6.70
2022-09-29T02:21:36.355Z,6.70
2022-09-29T02:24:04.620Z,6.70
2022-09-29T02:26:34.728Z,6.70
2022-09-29T02:29:03.209Z,6.60
2022-09-29T02:31:32.145Z,6.60
2022-09-29T02:34:00.710Z,6.60
2022-09-29T02:36:36.955Z,6.60
2022-09-29T02:39:12.999Z,6.60
2022-09-29T02:41:50.014Z,6.60
2022-09-29T02:44:26.652Z,6.60
2022-09-29T02:47:18.363Z,6.60
2022-09-29T02:50:06.810Z,6.60
2022-09-29T02:52:46.174Z,6.50
2022-09-29T02:55:20.042Z,6.50
2022-09-29T02:57:52.641Z,6.50
2022-09-29T03:00:21.383Z,6.50
2022-09-29T03:02:49.302Z,6.50
2022-09-29T03:05:19.768Z,6.50
2022-09-29T03:07:49.311Z,6.50
2022-09-29T03:10:19.081Z,6.40
2022-09-29T03:12:47.763Z,6.40
2022-09-29T03:15:15.872Z,6.40
2022-09-29T03:17:43.597Z,6.40
2022-09-29T03:20:11.527Z,6.40
2022-09-29T03:22:39.483Z,6.30
2022-09-29T03:25:09.899Z,6.30
2022-09-29T03:27:38.515Z,6.40
2022-09-29T03:30:07.460Z,6.30
2022-09-29T03:32:35.215Z,6.30
2022-09-29T03:35:03.096Z,6.30
2022-09-29T03:37:30.910Z,6.20
2022-09-29T03:39:58.675Z,6.20
2022-09-29T03:42:28.471Z,6.20
2022-09-29T03:44:56.336Z,6.30
2022-09-29T03:47:24.084Z,6.30
2022-09-29T03:49:51.841Z,6.30
2022-09-29T03:52:20.175Z,6.30
2022-09-29T03:54:48.061Z,6.30
2022-09-29T03:57:15.868Z,6.40
2022-09-29T03:59:45.824Z,6.40
2022-09-29T04:02:14.197Z,6.40
2022-09-29T04:04:41.984Z,6.30
2022-09-29T04:07:09.756Z,6.30
2022-09-29T04:09:37.658Z,6.30
2022-09-29T04:12:06.264Z,6.30
2022-09-29T04:14:34.360Z,6.30
2022-09-29T04:17:03.817Z,6.30
2022-09-29T04:19:31.637Z,6.30
2022-09-29T04:21:59.443Z,6.40
2022-09-29T04:24:27.395Z,6.30
2022-09-29T04:26:55.060Z,6.40
2022-09-29T04:29:24.975Z,6.40
2022-09-29T04:31:54.995Z,6.40
2022-09-29T04:34:29.998Z,6.40
2022-09-29T04:36:57.819Z,6.40
2022-09-29T04:39:25.942Z,6.50
2022-09-29T04:41:53.886Z,6.50
2022-09-29T04:44:24.244Z,6.50
2022-09-29T04:46:52.398Z,6.50
2022-09-29T04:49:20.832Z,6.50
2022-09-29T04:51:49.994Z,6.60
2022-09-29T04:54:18.151Z,6.60
2022-09-29T04:56:45.916Z,6.60
2022-09-29T04:59:14.051Z,6.60
2022-09-29T05:01:42.012Z,6.60
2022-09-29T05:04:10.943Z,6.60
2022-09-29T05:06:39.408Z,6.60
2022-09-29T05:09:10.645Z,6.60
2022-09-29T05:11:38.748Z,6.60
2022-09-29T05:14:07.129Z,6.60
2022-09-29T05:16:34.951Z,6.60
2022-09-29T05:19:04.991Z,6.70
2022-09-29T05:21:32.732Z,6.70
2022-09-29T05:24:00.472Z,6.70
2022-09-29T05:26:29.880Z,6.70
2022-09-29T05:29:00.343Z,6.70
2022-09-29T05:31:28.225Z,6.70
2022-09-29T05:33:56.575Z,6.70
2022-09-29T05:39:27.478Z,6.80
2022-09-29T05:41:59.499Z,6.80
2022-09-29T05:44:27.880Z,6.80
2022-09-29T05:46:55.772Z,6.90
2022-09-29T05:49:23.699Z,6.90
2022-09-29T05:51:51.419Z,6.90
2022-09-29T05:54:19.274Z,7.00
2022-09-29T05:56:47.108Z,7.00
2022-09-29T05:59:16.798Z,7.10
2022-09-29T06:01:49.089Z,7.30
2022-09-29T06:04:17.569Z,7.40
2022-09-29T06:06:46.468Z,7.60
2022-09-29T06:09:14.897Z,7.80
2022-09-29T06:11:42.962Z,7.90
2022-09-29T06:14:10.806Z,8.10
2022-09-29T06:16:40.922Z,8.20
2022-09-29T06:19:08.841Z,8.30
2022-09-29T06:21:37.864Z,8.40
2022-09-29T06:24:09.373Z,8.50
2022-09-29T06:26:39.899Z,8.50
2022-09-29T06:29:08.067Z,8.70
2022-09-29T06:31:35.920Z,8.70
2022-09-29T06:34:06.288Z,8.80
2022-09-29T06:36:55.583Z,8.90
2022-09-29T06:39:23.603Z,9.00
2022-09-29T06:41:55.006Z,9.10
2022-09-29T06:44:24.490Z,9.10
2022-09-29T06:46:53.909Z,9.20
2022-09-29T06:49:24.231Z,9.20
2022-09-29T06:51:52.514Z,9.30
2022-09-29T06:54:23.385Z,9.40
2022-09-29T06:56:52.642Z,9.50
2022-09-29T06:59:20.992Z,9.50
2022-09-29T07:01:51.200Z,9.70
2022-09-29T07:04:21.115Z,9.70
2022-09-29T07:06:51.015Z,9.80
2022-09-29T07:09:19.879Z,9.90
2022-09-29T07:11:58.964Z,9.90
2022-09-29T07:14:26.915Z,9.90
2022-09-29T07:16:55.434Z,10.00
2022-09-29T07:19:23.362Z,10.00
2022-09-29T07:21:52.598Z,10.20
2022-09-29T07:24:20.622Z,10.30
2022-09-29T07:26:48.553Z,10.50
2022-09-29T07:29:16.593Z,10.50
2022-09-29T07:31:51.584Z,10.60
2022-09-29T07:34:20.132Z,10.70
2022-09-29T07:36:47.942Z,10.70
2022-09-29T07:39:17.382Z,10.80
2022-09-29T07:41:45.159Z,10.90
2022-09-29T07:44:12.961Z,10.90
2022-09-29T07:46:40.889Z,10.90
2022-09-29T07:49:08.829Z,10.90
2022-09-29T07:51:36.616Z,10.90
2022-09-29T07:54:07.336Z,10.90
2022-09-29T07:56:36.500Z,10.90
2022-09-29T07:59:05.372Z,11.00
2022-09-29T08:01:33.617Z,11.00
2022-09-29T08:04:01.994Z,11.10
2022-09-29T08:06:30.181Z,11.20
2022-09-29T08:09:04.319Z,11.20
2022-09-29T08:11:34.022Z,11.20
2022-09-29T08:14:03.532Z,11.30
2022-09-29T08:16:32.637Z,11.30
2022-09-29T08:19:00.919Z,11.40
2022-09-29T08:21:29.876Z,11.40
2022-09-29T08:23:57.702Z,11.40
2022-09-29T08:26:40.792Z,11.40
2022-09-29T08:29:16.368Z,11.50
2022-09-29T08:31:44.866Z,11.50
2022-09-29T08:34:14.026Z,11.50
2022-09-29T08:36:42.347Z,11.60
2022-09-29T08:39:11.640Z,11.70
2022-09-29T08:41:51.449Z,11.80
2022-09-29T08:44:37.923Z,11.90
2022-09-29T08:47:15.297Z,11.90
2022-09-29T08:49:47.969Z,12.00
2022-09-29T08:52:20.033Z,12.10
2022-09-29T08:54:50.726Z,12.20
2022-09-29T08:57:20.462Z,12.30
2022-09-29T08:59:55.325Z,12.40
2022-09-29T09:02:41.195Z,12.50
2022-09-29T09:05:21.159Z,12.60
2022-09-29T09:08:00.486Z,12.60
2022-09-29T09:10:40.880Z,12.70
2022-09-29T09:13:25.356Z,12.70
2022-09-29T09:16:07.226Z,12.80
2022-09-29T09:19:05.207Z,12.90
2022-09-29T09:21:42.366Z,12.90
2022-09-29T09:24:20.388Z,13.00
2022-09-29T09:26:50.688Z,13.00
2022-09-29T09:29:26.436Z,13.00
2022-09-29T09:32:01.940Z,13.00
2022-09-29T09:34:43.699Z,13.00
2022-09-29T09:37:18.661Z,13.00
2022-09-29T09:39:49.891Z,13.10
2022-09-29T09:42:24.032Z,13.20
2022-09-29T09:44:55.320Z,13.30
2022-09-29T09:47:29.128Z,13.30
2022-09-29T09:50:01.030Z,13.50
2022-09-29T09:52:38.382Z,13.60
2022-09-29T09:55:10.386Z,13.60
2022-09-29T09:58:11.561Z,13.70
2022-09-29T10:00:43.907Z,13.80
2022-09-29T10:03:14.420Z,13.90
2022-09-29T10:05:47.433Z,14.00
2022-09-29T10:08:26.583Z,14.10
2022-09-29T10:10:59.166Z,14.20
2022-09-29T10:13:29.748Z,14.20
2022-09-29T10:16:02.330Z,14.20
2022-09-29T10:19:10.152Z,14.30
2022-09-29T10:22:07.500Z,14.40
2022-09-29T10:24:35.218Z,14.30
2022-09-29T10:27:03.874Z,14.40
2022-09-29T10:29:37.761Z,14.40
2022-09-29T10:32:09.022Z,14.50
2022-09-29T10:34:41.767Z,14.40
2022-09-29T10:37:23.606Z,14.40
2022-09-29T10:39:51.953Z,14.40
2022-09-29T10:42:24.522Z,14.50
2022-09-29T10:44:54.653Z,14.50
2022-09-29T10:47:26.079Z,14.50
2022-09-29T10:50:16.262Z,14.40
2022-09-29T10:52:45.381Z,14.40
2022-09-29T10:55:19.746Z,14.30
2022-09-29T10:57:50.511Z,14.10
2022-09-29T11:00:34.800Z,14.10
2022-09-29T11:03:18.179Z,14.00
2022-09-29T11:05:54.680Z,14.00
2022-09-29T11:08:29.053Z,14.10
2022-09-29T11:11:07.487Z,14.10
2022-09-29T11:13:41.543Z,14.10
2022-09-29T11:16:16.710Z,14.10
2022-09-29T11:18:49.722Z,14.10
2022-09-29T11:22:08.413Z,14.00
2022-09-29T11:24:54.100Z,14.00
2022-09-29T11:27:34.514Z,13.90
2022-09-29T11:30:24.680Z,13.80
2022-09-29T11:33:08.623Z,13.80
2022-09-29T11:36:01.981Z,13.80
2022-09-29T11:38:54.915Z,13.80
2022-09-29T11:41:51.226Z,13.90
2022-09-29T11:44:43.574Z,14.00
2022-09-29T11:50:27.805Z,14.20
2022-09-29T11:53:19.855Z,14.20
2022-09-29T11:56:01.885Z,14.30
2022-09-29T11:58:47.837Z,14.20
2022-09-29T12:01:35.127Z,14.10
2022-09-29T12:04:18.516Z,14.10
2022-09-29T12:06:54.193Z,14.10
2022-09-29T12:09:48.295Z,14.00
2022-09-29T12:12:24.916Z,14.00
2022-09-29T12:15:17.118Z,14.10
2022-09-29T12:17:49.750Z,14.10
2022-09-29T12:20:21.585Z,14.10
2022-09-29T12:22:51.775Z,14.10
2022-09-29T12:25:24.899Z,14.10
2022-09-29T12:27:57.575Z,14.20
2022-09-29T12:30:29.715Z,14.20
2022-09-29T12:33:03.260Z,14.20
2022-09-29T12:35:36.538Z,14.30
2022-09-29T12:38:16.610Z,14.30
2022-09-29T12:40:49.049Z,14.20
2022-09-29T12:43:25.038Z,14.20
2022-09-29T12:45:57.260Z,14.20
2022-09-29T12:48:43.864Z,14.20
2022-09-29T12:51:18.844Z,14.20
2022-09-29T12:53:57.777Z,14.30
2022-09-29T12:56:30.909Z,14.30
2022-09-29T12:59:08.884Z,14.40
2022-09-29T13:01:38.597Z,14.40
2022-09-29T13:04:38.015Z,14.40
2022-09-29T13:07:54.530Z,14.30
2022-09-29T13:10:45.233Z,14.30
2022-09-29T13:13:55.418Z,14.20
2022-09-29T13:16:38.558Z,14.20
2022-09-29T13:19:56.229Z,14.20
2022-09-29T13:22:57.338Z,14.10
2022-09-29T13:25:33.637Z,14.10
2022-09-29T13:28:01.884Z,14.00
2022-09-29T13:30:32.022Z,13.90
2022-09-29T13:33:10.091Z,13.80
2022-09-29T13:35:41.009Z,13.70
2022-09-29T13:38:14.852Z,13.70
2022-09-29T13:41:13.583Z,13.60
2022-09-29T13:44:05.659Z,13.60
2022-09-29T13:46:39.839Z,13.50
2022-09-29T13:49:23.506Z,13.40
2022-09-29T13:51:52.694Z,13.30
2022-09-29T13:54:34.699Z,13.20
2022-09-29T13:57:26.976Z,13.20
2022-09-29T14:00:18.645Z,13.20
2022-09-29T14:03:02.020Z,13.10
2022-09-29T14:05:53.729Z,13.10
2022-09-29T14:08:28.707Z,13.10
2022-09-29T14:11:04.898Z,13.20
2022-09-29T14:13:40.701Z,13.10
2022-09-29T14:16:19.892Z,13.20
2022-09-29T14:18:54.463Z,13.20
2022-09-29T14:21:51.888Z,13.20
2022-09-29T14:24:42.632Z,13.20
2022-09-29T14:27:32.118Z,13.30
2022-09-29T14:30:18.401Z,13.30
2022-09-29T14:32:53.187Z,13.30
2022-09-29T14:35:26.291Z,13.40
2022-09-29T14:38:01.130Z,13.50
2022-09-29T14:40:29.222Z,13.50
2022-09-29T14:43:13.933Z,13.60
2022-09-29T14:46:30.579Z,13.60
2022-09-29T14:49:43.369Z,13.70
2022-09-29T14:52:20.779Z,13.60
2022-09-29T14:55:01.162Z,13.60
2022-09-29T14:58:03.427Z,13.60
2022-09-29T15:00:44.782Z,13.60
2022-09-29T15:03:27.665Z,13.60
2022-09-29T15:06:11.295Z,13.60
2022-09-29T15:08:39.912Z,13.60
2022-09-29T15:11:28.830Z,13.60
2022-09-29T15:13:57.469Z,13.70
2022-09-29T15:16:34.601Z,13.70
2022-09-29T15:19:21.621Z,13.70
2022-09-29T15:21:58.373Z,13.60
2022-09-29T15:24:50.849Z,13.60
2022-09-29T15:27:20.929Z,13.60
2022-09-29T15:29:50.014Z,13.50
2022-09-29T15:32:23.607Z,13.50
2022-09-29T15:34:56.066Z,13.50
2022-09-29T15:37:24.061Z,13.50
2022-09-29T15:39:54.408Z,13.50
2022-09-29T15:42:24.943Z,13.50
2022-09-29T15:44:59.225Z,13.50
2022-09-29T15:47:29.902Z,13.40
2022-09-29T15:49:57.822Z,13.40
2022-09-29T15:52:27.300Z,13.40
2022-09-29T15:54:57.686Z,13.30
2022-09-29T15:57:50.031Z,13.30
2022-09-29T16:00:54.795Z,13.30
2022-09-29T16:03:30.353Z,13.20
2022-09-29T16:06:05.015Z,13.20
2022-09-29T16:08:37.117Z,13.20
2022-09-29T16:11:08.155Z,13.20
2022-09-29T16:13:41.454Z,13.10
2022-09-29T16:16:12.287Z,13.10
2022-09-29T16:18:43.293Z,13.10
2022-09-29T16:21:14.597Z,13.10
2022-09-29T16:23:45.126Z,13.00
2022-09-29T16:26:18.362Z,13.00
2022-09-29T16:29:07.816Z,13.00
2022-09-29T16:31:38.280Z,12.90
2022-09-29T16:34:23.200Z,12.90
2022-09-29T16:36:52.469Z,12.90
2022-09-29T16:39:22.906Z,12.90
2022-09-29T16:41:52.098Z,12.80
2022-09-29T16:44:26.559Z,12.90
2022-09-29T16:46:57.002Z,12.90
2022-09-29T16:49:27.776Z,12.80
2022-09-29T16:51:58.282Z,12.80
2022-09-29T16:54:29.142Z,12.80
2022-09-29T16:57:25.255Z,12.80
2022-09-29T16:59:55.969Z,12.80
2022-09-29T17:02:25.317Z,12.80
2022-09-29T17:04:54.584Z,12.80
2022-09-29T17:07:24.305Z,12.80
2022-09-29T17:09:55.734Z,12.80
2022-09-29T17:12:24.707Z,12.80
2022-09-29T17:14:53.703Z,12.70
2022-09-29T17:17:23.878Z,12.80
2022-09-29T17:19:51.780Z,12.70
2022-09-29T17:22:30.802Z,12.80
2022-09-29T17:24:59.290Z,12.80
2022-09-29T17:27:45.447Z,12.80
2022-09-29T17:30:18.489Z,12.70
2022-09-29T17:32:46.812Z,12.70
2022-09-29T17:35:15.304Z,12.70
2022-09-29T17:37:46.569Z,12.70
2022-09-29T17:40:20.568Z,12.70
2022-09-29T17:42:48.776Z,12.70
2022-09-29T17:45:20.087Z,12.70
2022-09-29T17:47:49.185Z,12.70
2022-09-29T17:50:25.081Z,12.70
2022-09-29T17:52:53.041Z,12.70
2022-09-29T17:55:22.807Z,12.70
2022-09-29T17:57:53.216Z,12.70
2022-09-29T18:00:23.915Z,12.70
2022-09-29T18:02:52.214Z,12.70
2022-09-29T18:05:23.360Z,12.70
2022-09-29T18:07:51.392Z,12.70
2022-09-29T18:10:21.936Z,12.70
2022-09-29T18:12:49.642Z,12.70
2022-09-29T18:15:17.724Z,12.70
2022-09-29T18:17:47.422Z,12.70
2022-09-29T18:20:17.624Z,12.70
2022-09-29T18:22:47.039Z,12.70
2022-09-29T18:25:17.663Z,12.70
2022-09-29T18:27:45.753Z,12.70
2022-09-29T18:30:20.312Z,12.70
2022-09-29T18:32:51.301Z,12.70
2022-09-29T18:35:23.705Z,12.70
2022-09-29T18:37:51.633Z,12.70
2022-09-29T18:40:20.813Z,12.70
2022-09-29T18:42:51.957Z,12.60
2022-09-29T18:45:23.098Z,12.60
2022-09-29T18:47:53.353Z,12.60
2022-09-29T18:50:23.663Z,12.60
2022-09-29T18:52:52.451Z,12.60
2022-09-29T18:55:23.206Z,12.50
2022-09-29T18:57:51.464Z,12.60
2022-09-29T19:00:21.629Z,12.50
2022-09-29T19:02:50.461Z,12.60
2022-09-29T19:05:22.477Z,12.60
2022-09-29T19:07:53.822Z,12.60
2022-09-29T19:10:23.081Z,12.60
2022-09-29T19:12:52.115Z,12.60
2022-09-29T19:15:21.486Z,12.60
2022-09-29T19:17:50.511Z,12.60
2022-09-29T19:20:20.123Z,12.60
2022-09-29T19:22:47.911Z,12.60
2022-09-29T19:25:17.474Z,12.60
2022-09-29T19:27:46.382Z,12.60
2022-09-29T19:30:16.579Z,12.60
2022-09-29T19:32:44.535Z,12.60
2022-09-29T19:35:15.416Z,12.60
2022-09-29T19:37:45.068Z,12.60
2022-09-29T19:40:16.989Z,12.60
2022-09-29T19:42:44.795Z,12.60
2022-09-29T19:45:12.705Z,12.60
2022-09-29T19:47:40.701Z,12.50
2022-09-29T19:50:27.309Z,12.50
2022-09-29T19:52:56.731Z,12.50
2022-09-29T19:55:24.547Z,12.50
2022-09-29T19:57:52.223Z,12.50
2022-09-29T20:00:22.013Z,12.40
2022-09-29T20:02:50.680Z,12.40
2022-09-29T20:05:18.893Z,12.40
2022-09-29T20:07:46.859Z,12.40
2022-09-29T20:10:17.337Z,12.40
2022-09-29T20:12:46.441Z,12.40
2022-09-29T20:15:14.136Z,12.40
2022-09-29T20:17:44.145Z,12.40
2022-09-29T20:20:12.972Z,12.40
2022-09-29T20:22:40.754Z,12.40
2022-09-29T20:25:09.374Z,12.30
2022-09-29T20:27:39.771Z,12.30
2022-09-29T20:30:09.998Z,12.30
2022-09-29T20:32:37.668Z,12.30
2022-09-29T20:35:06.193Z,12.40
2022-09-29T20:37:35.165Z,12.40
2022-09-29T20:40:03.427Z,12.40
2022-09-29T20:42:38.199Z,12.40
2022-09-29T20:45:08.060Z,12.40
2022-09-29T20:47:37.073Z,12.40
2022-09-29T20:50:05.333Z,12.40
2022-09-29T20:52:33.065Z,12.50
2022-09-29T20:55:02.401Z,12.40
2022-09-29T20:57:30.054Z,12.50
2022-09-29T20:59:57.821Z,12.50
2022-09-29T21:02:27.248Z,12.40
2022-09-29T21:04:55.097Z,12.40
2022-09-29T21:07:38.261Z,12.40
2022-09-29T21:10:07.433Z,12.40
2022-09-29T21:12:35.414Z,12.40
2022-09-29T21:15:03.770Z,12.40
2022-09-29T21:17:32.826Z,12.40
2022-09-29T21:20:00.548Z,12.40
2022-09-29T21:22:28.339Z,12.40
2022-09-29T21:24:56.154Z,12.40
2022-09-29T21:27:23.928Z,12.40
2022-09-29T21:29:51.610Z,12.40
2022-09-29T21:32:19.634Z,12.40
2022-09-29T21:34:48.760Z,12.40
2022-09-29T21:37:16.717Z,12.30
2022-09-29T21:39:44.449Z,12.30
2022-09-29T21:42:12.135Z,12.30
2022-09-29T21:44:40.026Z,12.30
2022-09-29T21:47:07.673Z,12.30
2022-09-29T21:49:35.354Z,12.30
2022-09-29T21:52:04.505Z,12.30
2022-09-29T21:54:33.834Z,12.30
2022-09-29T21:57:01.482Z,12.30
2022-09-29T21:59:29.130Z,12.30
2022-09-29T22:01:56.864Z,12.20
2022-09-29T22:04:24.873Z,12.10
2022-09-29T22:06:52.554Z,12.00
2022-09-29T22:09:22.740Z,11.90
2022-09-29T22:11:50.839Z,11.80
2022-09-29T22:14:19.164Z,11.60
2022-09-29T22:16:47.263Z,11.50
2022-09-29T22:19:23.971Z,11.40
2022-09-29T22:22:00.382Z,11.40
2022-09-29T22:24:29.443Z,11.40
2022-09-29T22:26:57.111Z,11.30
2022-09-29T22:29:25.203Z,11.40
2022-09-29T22:31:53.055Z,11.30
2022-09-29T22:34:20.781Z,11.30
2022-09-29T22:36:48.494Z,11.30
2022-09-29T22:39:16.256Z,11.20
2022-09-29T22:41:45.312Z,11.10
2022-09-29T22:44:13.270Z,11.00
2022-09-29T22:46:41.002Z,10.90
2022-09-29T22:49:08.833Z,10.90
2022-09-29T22:51:36.856Z,10.80
2022-09-29T22:54:04.791Z,10.80
2022-09-29T22:56:32.591Z,10.80
2022-09-29T22:59:02.940Z,10.70
2022-09-29T23:01:30.744Z,10.70
2022-09-29T23:03:58.815Z,10.70
2022-09-29T23:06:26.852Z,10.60
2022-09-29T23:08:55.151Z,10.60
2022-09-29T23:11:23.312Z,10.50
2022-09-29T23:13:51.133Z,10.40
2022-09-29T23:16:20.432Z,10.40
2022-09-29T23:18:52.331Z,10.30
2022-09-29T23:21:20.158Z,10.20
2022-09-29T23:23:48.940Z,10.20
2022-09-29T23:26:16.961Z,10.10
2022-09-29T23:28:44.681Z,10.10
2022-09-29T23:31:13.012Z,10.00
2022-09-29T23:33:42.216Z,10.00
2022-09-29T23:36:11.651Z,10.00
2022-09-29T23:38:58.017Z,10.00
2022-09-29T23:41:27.064Z,9.90
2022-09-29T23:43:56.450Z,9.80
2022-09-29T23:46:24.391Z,9.80
2022-09-29T23:48:53.454Z,9.70
2022-09-29T23:51:21.141Z,9.70
2022-09-29T23:53:49.429Z,9.70
2022-09-29T23:56:17.139Z,9.60
2022-09-29T23:58:44.932Z,9.60
